createdAt,value
2019-03-23T00:01:22.845Z,123.57
2019-03-23T00:03:53.875Z,118.63
2019-03-23T00:06:30.782Z,113.50
2019-03-23T00:08:56.073Z,107.47
2019-03-23T00:11:25.774Z,113.83
2019-03-23T00:13:55.836Z,106.30
2019-03-23T00:16:25.735Z,106.37
2019-03-23T00:18:56.311Z,102.20
2019-03-23T00:21:26.036Z,96.43
2019-03-23T00:23:56.161Z,102.07
2019-03-23T00:26:26.171Z,90.90
2019-03-23T00:28:56.189Z,88.53
2019-03-23T00:31:26.307Z,87.43
2019-03-23T00:33:56.139Z,88.63
2019-03-23T00:36:26.239Z,81.87
2019-03-23T00:38:55.931Z,83.73
2019-03-23T00:41:26.125Z,82.20
2019-03-23T00:43:55.917Z,89.57
2019-03-23T00:46:26.141Z,82.90
2019-03-23T00:48:56.216Z,84.73
2019-03-23T00:51:26.748Z,80.63
2019-03-23T00:53:56.537Z,84.20
2019-03-23T00:56:26.242Z,78.03
2019-03-23T00:58:56.117Z,80.07
2019-03-23T01:01:26.087Z,77.57
2019-03-23T01:03:55.877Z,81.97
2019-03-23T01:06:25.995Z,77.20
2019-03-23T01:08:56.137Z,85.40
2019-03-23T01:11:25.861Z,79.40
2019-03-23T01:13:55.573Z,77.03
2019-03-23T01:16:25.281Z,79.63
2019-03-23T01:18:54.976Z,78.47
2019-03-23T01:21:24.873Z,80.53
2019-03-23T01:23:54.564Z,81.00
2019-03-23T01:26:24.305Z,77.50
2019-03-23T01:28:54.072Z,77.90
2019-03-23T01:31:24.228Z,74.53
2019-03-23T01:33:53.959Z,70.17
2019-03-23T01:36:24.201Z,73.37
2019-03-23T01:38:53.997Z,73.53
2019-03-23T01:41:23.713Z,70.70
2019-03-23T01:43:55.369Z,73.53
2019-03-23T01:46:25.442Z,72.07
2019-03-23T01:48:55.624Z,68.00
2019-03-23T01:51:25.531Z,65.27
2019-03-23T01:53:55.731Z,66.57
2019-03-23T01:56:26.970Z,60.83
2019-03-23T01:58:58.967Z,64.33
2019-03-23T02:01:29.104Z,68.00
2019-03-23T02:03:59.104Z,66.60
2019-03-23T02:06:28.917Z,70.33
2019-03-23T02:08:59.870Z,73.27
2019-03-23T02:11:30.355Z,67.50
2019-03-23T02:14:01.347Z,67.23
2019-03-23T02:16:32.200Z,67.50
2019-03-23T02:19:03.059Z,65.73
2019-03-23T02:21:33.092Z,65.67
2019-03-23T02:24:02.912Z,66.87
2019-03-23T02:26:32.685Z,64.03
2019-03-23T02:29:02.837Z,64.57
2019-03-23T02:31:32.642Z,67.10
2019-03-23T02:34:02.695Z,66.10
2019-03-23T02:36:32.406Z,63.90
2019-03-23T02:39:02.110Z,66.97
2019-03-23T02:41:32.194Z,64.93
2019-03-23T02:44:02.673Z,62.50
2019-03-23T02:46:32.869Z,67.47
2019-03-23T02:49:03.087Z,69.30
2019-03-23T02:51:32.903Z,67.23
2019-03-23T02:54:05.313Z,62.00
2019-03-23T02:56:35.624Z,64.70
2019-03-23T02:59:05.387Z,69.87
2019-03-23T03:01:35.616Z,69.83
2019-03-23T03:04:05.514Z,62.73
2019-03-23T03:06:35.678Z,69.73
2019-03-23T03:09:08.061Z,65.40
2019-03-23T03:11:38.326Z,67.70
2019-03-23T03:14:08.339Z,66.00
2019-03-23T03:16:38.190Z,65.93
2019-03-23T03:19:08.615Z,73.27
2019-03-23T03:21:38.500Z,68.10
2019-03-23T03:24:08.562Z,71.00
2019-03-23T03:26:39.251Z,69.57
2019-03-23T03:29:08.961Z,71.10
2019-03-23T03:31:41.291Z,68.27
2019-03-23T03:34:11.913Z,68.60
2019-03-23T03:36:42.117Z,64.73
2019-03-23T03:39:12.197Z,66.87
2019-03-23T03:41:42.254Z,64.20
2019-03-23T03:44:11.986Z,63.47
2019-03-23T03:46:42.188Z,65.53
2019-03-23T03:49:13.022Z,62.93
2019-03-23T03:51:43.897Z,67.23
2019-03-23T03:54:13.700Z,59.20
2019-03-23T03:56:45.245Z,63.80
2019-03-23T03:59:15.374Z,64.03
2019-03-23T04:01:45.563Z,62.20
2019-03-23T04:04:15.380Z,67.40
2019-03-23T04:06:45.081Z,65.07
2019-03-23T04:09:14.852Z,67.40
2019-03-23T04:11:45.321Z,64.13
2019-03-23T04:14:15.051Z,63.53
2019-03-23T04:16:45.630Z,62.47
2019-03-23T04:19:15.413Z,61.00
2019-03-23T04:21:45.203Z,66.67
2019-03-23T04:24:15.379Z,65.80
2019-03-23T04:26:45.391Z,63.20
2019-03-23T04:29:15.536Z,61.33
2019-03-23T04:31:45.753Z,66.60
2019-03-23T04:34:15.838Z,63.97
2019-03-23T04:36:45.644Z,64.77
2019-03-23T04:39:15.395Z,62.10
2019-03-23T04:41:45.651Z,63.37
2019-03-23T04:44:16.256Z,62.37
2019-03-23T04:46:46.052Z,60.67
2019-03-23T04:49:15.826Z,64.50
2019-03-23T04:51:45.677Z,64.77
2019-03-23T04:54:15.433Z,63.27
2019-03-23T04:56:45.201Z,61.37
2019-03-23T04:59:15.038Z,66.83
2019-03-23T05:01:44.760Z,65.93
2019-03-23T05:04:15.546Z,63.70
2019-03-23T05:06:45.269Z,65.37
2019-03-23T05:09:14.986Z,70.60
2019-03-23T05:11:45.006Z,67.80
2019-03-23T05:14:15.577Z,64.87
2019-03-23T05:16:45.714Z,65.07
2019-03-23T05:19:15.832Z,65.67
2019-03-23T05:21:45.576Z,75.10
2019-03-23T05:24:15.361Z,68.17
2019-03-23T05:26:45.460Z,72.37
2019-03-23T05:29:15.193Z,68.37
2019-03-23T05:31:45.006Z,78.83
2019-03-23T05:34:14.837Z,66.83
2019-03-23T05:36:44.731Z,75.67
2019-03-23T05:39:14.599Z,71.93
2019-03-23T05:41:44.322Z,71.10
2019-03-23T05:44:14.739Z,70.37
2019-03-23T05:46:44.501Z,70.23
2019-03-23T05:49:14.778Z,74.07
2019-03-23T05:51:44.486Z,75.93
2019-03-23T05:54:14.190Z,69.37
2019-03-23T05:56:44.345Z,69.93
2019-03-23T05:59:14.205Z,74.80
2019-03-23T06:01:44.330Z,81.07
2019-03-23T06:04:14.165Z,71.17
2019-03-23T06:06:44.278Z,67.40
2019-03-23T06:09:15.234Z,80.03
2019-03-23T06:11:45.072Z,75.80
2019-03-23T06:14:14.789Z,74.20
2019-03-23T06:16:44.639Z,75.47
2019-03-23T06:19:14.456Z,70.57
2019-03-23T06:21:44.238Z,74.97
2019-03-23T06:24:14.723Z,75.30
2019-03-23T06:26:44.929Z,76.17
2019-03-23T06:29:15.105Z,79.17
2019-03-23T06:31:44.815Z,79.53
2019-03-23T06:34:14.958Z,75.87
2019-03-23T06:36:45.745Z,74.27
2019-03-23T06:39:16.834Z,81.83
2019-03-23T06:41:46.973Z,72.80
2019-03-23T06:44:18.418Z,74.50
2019-03-23T06:46:48.333Z,73.80
2019-03-23T06:49:18.842Z,82.40
2019-03-23T06:51:48.557Z,74.97
2019-03-23T06:54:18.393Z,77.37
2019-03-23T06:56:48.125Z,71.97
2019-03-23T06:59:18.965Z,72.63
2019-03-23T07:01:49.530Z,81.53
2019-03-23T07:04:19.659Z,82.07
2019-03-23T07:06:49.399Z,77.33
2019-03-23T07:09:19.131Z,73.57
2019-03-23T07:11:49.267Z,71.13
2019-03-23T07:14:19.765Z,75.23
2019-03-23T07:16:52.159Z,72.50
2019-03-23T07:19:22.359Z,77.20
2019-03-23T07:21:52.441Z,77.20
2019-03-23T07:24:26.279Z,71.00
2019-03-23T07:26:56.935Z,68.27
2019-03-23T07:29:26.775Z,72.63
2019-03-23T07:32:05.462Z,71.77
2019-03-23T07:34:29.929Z,73.57
2019-03-23T07:37:00.869Z,68.47
2019-03-23T07:39:31.307Z,68.03
2019-03-23T07:42:01.454Z,68.83
2019-03-23T07:44:31.614Z,68.23
2019-03-23T07:47:01.441Z,68.10
2019-03-23T07:49:31.993Z,66.87
2019-03-23T07:52:01.843Z,69.97
2019-03-23T07:54:31.907Z,73.73
2019-03-23T07:57:01.967Z,70.83
2019-03-23T07:59:32.489Z,72.93
2019-03-23T08:02:02.174Z,67.53
2019-03-23T08:04:32.368Z,72.33
2019-03-23T08:07:02.205Z,69.93
2019-03-23T08:09:37.562Z,72.43
2019-03-23T08:12:04.246Z,71.03
2019-03-23T08:14:36.143Z,72.83
2019-03-23T08:17:05.769Z,71.67
2019-03-23T08:19:40.451Z,69.77
2019-03-23T08:22:11.229Z,73.13
2019-03-23T08:24:41.646Z,73.50
2019-03-23T08:27:11.406Z,71.47
2019-03-23T08:29:42.976Z,77.27
2019-03-23T08:32:13.488Z,65.90
2019-03-23T08:34:43.644Z,68.50
2019-03-23T08:37:13.348Z,73.63
2019-03-23T08:39:48.429Z,75.27
2019-03-23T08:42:14.797Z,69.40
2019-03-23T08:44:44.612Z,65.67
2019-03-23T08:47:14.409Z,67.00
2019-03-23T08:49:44.709Z,71.63
2019-03-23T08:52:15.942Z,66.97
2019-03-23T08:54:46.336Z,66.13
2019-03-23T08:57:16.831Z,66.97
2019-03-23T08:59:46.688Z,66.13
2019-03-23T09:02:16.474Z,64.70
2019-03-23T09:04:46.288Z,66.13
2019-03-23T09:07:16.026Z,64.23
2019-03-23T09:09:46.474Z,61.07
2019-03-23T09:12:16.193Z,64.57
2019-03-23T09:14:45.900Z,65.07
2019-03-23T09:17:16.389Z,69.03
2019-03-23T09:19:46.219Z,64.53
2019-03-23T09:22:17.003Z,65.60
2019-03-23T09:24:47.335Z,61.07
2019-03-23T09:27:17.239Z,63.10
2019-03-23T09:29:47.054Z,62.87
2019-03-23T09:32:16.811Z,61.73
2019-03-23T09:34:47.254Z,68.83
2019-03-23T09:37:16.972Z,63.23
2019-03-23T09:39:46.717Z,66.90
2019-03-23T09:42:16.522Z,62.07
2019-03-23T09:44:46.381Z,67.60
2019-03-23T09:47:16.252Z,63.23
2019-03-23T09:49:46.328Z,68.10
2019-03-23T09:52:16.115Z,61.77
2019-03-23T09:54:46.287Z,60.63
2019-03-23T09:57:16.211Z,60.53
2019-03-23T09:59:46.284Z,66.30
2019-03-23T10:02:16.488Z,68.17
2019-03-23T10:04:46.945Z,65.50
2019-03-23T10:07:17.294Z,67.20
2019-03-23T10:09:47.939Z,65.77
2019-03-23T10:12:18.152Z,61.53
2019-03-23T10:14:48.032Z,63.13
2019-03-23T10:17:18.083Z,64.43
2019-03-23T10:19:48.237Z,67.27
2019-03-23T10:22:18.425Z,67.37
2019-03-23T10:24:49.647Z,64.77
2019-03-23T10:27:19.723Z,60.67
2019-03-23T10:29:50.866Z,59.40
2019-03-23T10:32:21.358Z,59.57
2019-03-23T10:34:51.915Z,60.33
2019-03-23T10:37:21.665Z,61.63
2019-03-23T10:39:51.383Z,58.17
2019-03-23T10:42:21.528Z,59.17
2019-03-23T10:44:51.316Z,60.87
2019-03-23T10:47:21.619Z,59.13
2019-03-23T10:49:51.485Z,59.50
2019-03-23T10:52:21.869Z,61.33
2019-03-23T10:54:56.653Z,63.17
2019-03-23T10:57:26.449Z,57.17
2019-03-23T10:59:57.096Z,59.10
2019-03-23T11:02:27.273Z,54.67
2019-03-23T11:04:58.341Z,56.37
2019-03-23T11:07:28.830Z,52.97
2019-03-23T11:09:58.974Z,53.73
2019-03-23T11:12:29.591Z,54.83
2019-03-23T11:15:02.309Z,56.43
2019-03-23T11:17:36.055Z,50.47
2019-03-23T11:20:07.184Z,54.87
2019-03-23T11:22:36.972Z,61.70
2019-03-23T11:25:08.449Z,48.40
2019-03-23T11:27:41.144Z,51.70
2019-03-23T11:30:11.847Z,52.90
2019-03-23T11:32:41.555Z,53.40
2019-03-23T11:35:11.450Z,52.00
2019-03-23T11:37:41.506Z,56.53
2019-03-23T11:40:12.437Z,56.47
2019-03-23T11:42:49.884Z,55.27
2019-03-23T11:45:14.890Z,50.03
2019-03-23T11:47:44.744Z,55.97
2019-03-23T11:50:14.975Z,52.40
2019-03-23T11:52:46.974Z,49.90
2019-03-23T11:55:16.669Z,53.53
2019-03-23T11:57:46.386Z,47.53
2019-03-23T12:00:17.104Z,51.57
2019-03-23T12:02:47.275Z,49.87
2019-03-23T12:05:17.369Z,48.87
2019-03-23T12:07:47.165Z,50.70
2019-03-23T12:10:16.902Z,46.80
2019-03-23T12:12:47.019Z,49.43
2019-03-23T12:15:16.807Z,51.33
2019-03-23T12:17:46.952Z,51.07
2019-03-23T12:20:17.020Z,53.73
2019-03-23T12:22:47.132Z,51.97
2019-03-23T12:25:17.026Z,53.33
2019-03-23T12:27:47.726Z,48.63
2019-03-23T12:30:18.013Z,47.20
2019-03-23T12:32:50.540Z,53.07
2019-03-23T12:35:20.339Z,50.77
2019-03-23T12:37:50.054Z,52.00
2019-03-23T12:40:20.222Z,48.27
2019-03-23T12:42:49.978Z,53.27
2019-03-23T12:45:19.670Z,47.20
2019-03-23T12:47:49.875Z,46.80
2019-03-23T12:50:20.346Z,50.87
2019-03-23T12:52:50.090Z,47.83
2019-03-23T12:55:19.868Z,47.10
2019-03-23T12:57:50.058Z,49.97
2019-03-23T13:00:19.958Z,51.20
2019-03-23T13:02:50.190Z,54.67
2019-03-23T13:05:21.746Z,51.90
2019-03-23T13:07:51.596Z,57.37
2019-03-23T13:10:21.317Z,54.87
2019-03-23T13:12:51.670Z,57.47
2019-03-23T13:15:21.894Z,56.97
2019-03-23T13:17:52.086Z,50.80
2019-03-23T13:20:22.746Z,49.00
2019-03-23T13:22:52.427Z,49.37
2019-03-23T13:25:22.301Z,46.60
2019-03-23T13:27:52.010Z,47.60
2019-03-23T13:30:22.621Z,46.90
2019-03-23T13:32:53.246Z,40.63
2019-03-23T13:35:23.464Z,41.60
2019-03-23T13:37:54.650Z,37.93
2019-03-23T13:40:24.558Z,36.90
2019-03-23T13:42:55.142Z,34.10
2019-03-23T13:45:25.597Z,37.20
2019-03-23T13:47:55.668Z,33.37
2019-03-23T13:50:30.041Z,31.57
2019-03-23T13:53:00.247Z,29.23
2019-03-23T13:55:33.312Z,28.90
2019-03-23T13:58:16.773Z,35.63
2019-03-23T14:00:46.582Z,23.20
2019-03-23T14:03:16.759Z,21.03
2019-03-23T14:05:46.817Z,25.90
2019-03-23T14:08:17.975Z,32.43
2019-03-23T14:10:48.389Z,25.73
2019-03-23T14:13:18.092Z,27.90
2019-03-23T14:15:48.022Z,23.93
2019-03-23T14:18:17.830Z,26.60
2019-03-23T14:20:47.999Z,30.53
2019-03-23T14:23:18.040Z,29.77
2019-03-23T14:25:47.844Z,27.00
2019-03-23T14:28:17.616Z,27.40
2019-03-23T14:30:47.795Z,31.47
2019-03-23T14:33:17.570Z,30.10
2019-03-23T14:35:47.657Z,28.97
2019-03-23T14:38:17.365Z,23.40
2019-03-23T14:40:48.045Z,25.73
2019-03-23T14:43:18.134Z,20.93
2019-03-23T14:45:48.274Z,16.30
2019-03-23T14:48:18.413Z,15.07
2019-03-23T14:50:49.387Z,19.43
2019-03-23T14:53:19.221Z,15.93
2019-03-23T14:55:49.284Z,15.33
2019-03-23T14:58:19.466Z,18.40
2019-03-23T15:00:49.609Z,17.87
2019-03-23T15:03:19.450Z,17.90
2019-03-23T15:05:49.245Z,12.40
2019-03-23T15:08:19.069Z,18.07
2019-03-23T15:10:48.747Z,14.50
2019-03-23T15:13:18.867Z,19.63
2019-03-23T15:15:49.078Z,18.47
2019-03-23T15:18:19.110Z,14.33
2019-03-23T15:20:49.301Z,15.13
2019-03-23T15:23:19.409Z,19.33
2019-03-23T15:25:49.639Z,16.23
2019-03-23T15:28:19.803Z,15.07
2019-03-23T15:30:50.868Z,14.17
2019-03-23T15:33:21.462Z,15.90
2019-03-23T15:35:51.991Z,15.47
2019-03-23T15:38:22.018Z,17.07
2019-03-23T15:40:51.722Z,19.83
2019-03-23T15:43:21.845Z,19.43
2019-03-23T15:45:51.928Z,15.60
2019-03-23T15:48:23.132Z,14.60
2019-03-23T15:50:53.225Z,11.57
2019-03-23T15:53:23.281Z,14.60
2019-03-23T15:55:53.460Z,12.93
2019-03-23T15:58:23.706Z,16.63
2019-03-23T16:00:53.994Z,14.93
2019-03-23T16:03:23.706Z,19.30
2019-03-23T16:05:53.411Z,21.00
2019-03-23T16:08:23.523Z,15.70
2019-03-23T16:10:53.643Z,17.47
2019-03-23T16:13:23.807Z,21.60
2019-03-23T16:15:53.616Z,16.77
2019-03-23T16:18:23.340Z,15.33
2019-03-23T16:20:54.238Z,16.43
2019-03-23T16:23:24.384Z,23.93
2019-03-23T16:25:54.108Z,19.87
2019-03-23T16:28:23.809Z,20.27
2019-03-23T16:30:53.592Z,21.83
2019-03-23T16:33:23.674Z,26.30
2019-03-23T16:35:54.606Z,29.47
2019-03-23T16:38:24.488Z,19.03
2019-03-23T16:40:55.260Z,24.57
2019-03-23T16:43:25.034Z,26.37
2019-03-23T16:45:54.880Z,25.50
2019-03-23T16:48:24.624Z,22.83
2019-03-23T16:50:55.601Z,20.33
2019-03-23T16:53:25.399Z,25.63
2019-03-23T16:55:55.599Z,26.63
2019-03-23T16:58:25.338Z,20.53
2019-03-23T17:00:55.071Z,20.00
2019-03-23T17:03:25.502Z,23.17
2019-03-23T17:05:55.233Z,17.30
2019-03-23T17:08:26.740Z,19.60
2019-03-23T17:10:56.928Z,30.87
2019-03-23T17:13:26.915Z,23.00
2019-03-23T17:15:56.933Z,23.27
2019-03-23T17:18:27.362Z,22.37
2019-03-23T17:20:57.792Z,15.90
2019-03-23T17:23:27.486Z,20.90
2019-03-23T17:25:58.394Z,24.57
2019-03-23T17:28:28.412Z,19.97
2019-03-23T17:30:58.467Z,21.23
2019-03-23T17:33:28.173Z,18.87
2019-03-23T17:35:58.908Z,23.20
2019-03-23T17:38:29.004Z,26.90
2019-03-23T17:40:59.219Z,24.43
2019-03-23T17:43:29.324Z,23.23
2019-03-23T17:45:59.020Z,21.87
2019-03-23T17:48:29.179Z,16.23
2019-03-23T17:50:58.960Z,28.03
2019-03-23T17:53:28.715Z,23.00
2019-03-23T17:55:58.576Z,24.87
2019-03-23T17:58:28.267Z,27.53
2019-03-23T18:00:58.349Z,20.87
2019-03-23T18:03:28.518Z,23.57
2019-03-23T18:05:58.222Z,29.73
2019-03-23T18:08:27.928Z,20.20
2019-03-23T18:10:57.617Z,18.10
2019-03-23T18:13:27.610Z,22.47
2019-03-23T18:15:57.775Z,23.47
2019-03-23T18:18:27.868Z,20.00
2019-03-23T18:20:57.570Z,18.83
2019-03-23T18:23:27.455Z,22.27
2019-03-23T18:25:57.269Z,16.30
2019-03-23T18:28:27.288Z,28.27
2019-03-23T18:30:57.056Z,20.67
2019-03-23T18:33:27.211Z,28.17
2019-03-23T18:35:57.416Z,22.53
2019-03-23T18:38:27.175Z,22.30
2019-03-23T18:40:57.305Z,29.30
2019-03-23T18:43:28.206Z,22.63
2019-03-23T18:45:58.330Z,23.80
2019-03-23T18:48:29.042Z,24.43
2019-03-23T18:50:59.379Z,22.13
2019-03-23T18:53:29.645Z,25.53
2019-03-23T18:55:59.868Z,24.20
2019-03-23T18:58:30.767Z,22.43
2019-03-23T19:01:00.936Z,21.60
2019-03-23T19:03:31.059Z,29.53
2019-03-23T19:06:00.851Z,20.07
2019-03-23T19:08:30.753Z,27.37
2019-03-23T19:11:00.569Z,21.07
2019-03-23T19:13:37.766Z,22.37
2019-03-23T19:16:02.462Z,27.73
2019-03-23T19:18:32.647Z,18.10
2019-03-23T19:21:02.753Z,26.97
2019-03-23T19:23:34.455Z,21.43
2019-03-23T19:26:04.025Z,26.43
2019-03-23T19:28:34.078Z,28.07
2019-03-23T19:31:04.210Z,34.50
2019-03-23T19:33:34.449Z,24.03
2019-03-23T19:36:04.510Z,25.53
2019-03-23T19:38:34.385Z,24.53
2019-03-23T19:41:05.600Z,23.20
2019-03-23T19:43:35.678Z,25.13
2019-03-23T19:46:05.491Z,21.50
2019-03-23T19:48:35.261Z,27.37
2019-03-23T19:51:06.005Z,22.83
2019-03-23T19:53:36.131Z,24.90
2019-03-23T19:56:08.205Z,24.20
2019-03-23T19:58:37.416Z,25.03
2019-03-23T20:01:07.350Z,27.73
2019-03-23T20:03:37.963Z,24.30
2019-03-23T20:06:08.202Z,28.33
2019-03-23T20:08:38.369Z,21.83
2019-03-23T20:11:08.578Z,21.30
2019-03-23T20:13:38.381Z,20.90
2019-03-23T20:16:09.477Z,27.93
2019-03-23T20:18:39.594Z,29.80
2019-03-23T20:21:09.579Z,19.80
2019-03-23T20:23:39.786Z,27.30
2019-03-23T20:26:09.893Z,31.70
2019-03-23T20:28:40.796Z,17.87
2019-03-23T20:31:11.344Z,24.87
2019-03-23T20:33:41.188Z,25.83
2019-03-23T20:36:10.986Z,26.17
2019-03-23T20:38:42.620Z,17.87
2019-03-23T20:41:12.336Z,16.97
2019-03-23T20:43:42.040Z,21.87
2019-03-23T20:46:13.121Z,26.27
2019-03-23T20:48:44.814Z,22.47
2019-03-23T20:51:14.607Z,28.60
2019-03-23T20:53:44.493Z,22.63
2019-03-23T20:56:14.490Z,20.40
2019-03-23T20:58:44.305Z,22.63
2019-03-23T21:01:14.518Z,19.57
2019-03-23T21:03:45.097Z,23.97
2019-03-23T21:06:15.564Z,26.87
2019-03-23T21:08:46.093Z,22.33
2019-03-23T21:11:16.234Z,21.30
2019-03-23T21:13:46.261Z,24.87
2019-03-23T21:16:16.862Z,20.73
2019-03-23T21:18:46.645Z,33.00
2019-03-23T21:21:16.890Z,24.87
2019-03-23T21:23:48.258Z,28.97
2019-03-23T21:26:18.046Z,26.90
2019-03-23T21:28:48.175Z,19.57
2019-03-23T21:31:19.209Z,19.37
2019-03-23T21:33:49.729Z,26.17
2019-03-23T21:36:19.611Z,25.07
2019-03-23T21:38:49.832Z,22.93
2019-03-23T21:41:20.004Z,20.50
2019-03-23T21:43:50.171Z,27.43
2019-03-23T21:46:20.949Z,22.47
2019-03-23T21:48:50.774Z,24.23
2019-03-23T21:51:21.260Z,21.57
2019-03-23T21:53:51.410Z,27.70
2019-03-23T21:56:21.115Z,21.93
2019-03-23T21:58:51.310Z,21.97
2019-03-23T22:01:21.088Z,27.37
2019-03-23T22:03:51.591Z,23.00
2019-03-23T22:06:22.464Z,22.20
2019-03-23T22:08:52.729Z,26.00
2019-03-23T22:11:22.526Z,27.30
2019-03-23T22:13:52.897Z,22.77
2019-03-23T22:16:22.901Z,29.93
2019-03-23T22:18:53.461Z,25.17
2019-03-23T22:21:25.371Z,23.20
2019-03-23T22:23:55.665Z,25.73
2019-03-23T22:26:25.722Z,26.97
2019-03-23T22:28:56.239Z,20.67
2019-03-23T22:31:26.478Z,32.50
2019-03-23T22:33:56.202Z,29.27
2019-03-23T22:36:25.898Z,19.80
2019-03-23T22:38:56.480Z,23.47
2019-03-23T22:41:27.168Z,27.90
2019-03-23T22:43:56.936Z,28.27
2019-03-23T22:46:26.867Z,31.37
2019-03-23T22:48:57.687Z,25.43
2019-03-23T22:51:28.794Z,28.30
2019-03-23T22:53:58.941Z,27.03
2019-03-23T22:56:29.039Z,28.13
2019-03-23T22:58:59.136Z,26.80
2019-03-23T23:01:29.710Z,31.07
2019-03-23T23:04:00.003Z,28.40
2019-03-23T23:06:30.393Z,24.43
2019-03-23T23:09:00.985Z,22.83
2019-03-23T23:11:31.214Z,24.33
2019-03-23T23:14:01.322Z,29.30
2019-03-23T23:16:31.377Z,21.67
2019-03-23T23:19:02.082Z,27.73
2019-03-23T23:21:32.128Z,24.03
2019-03-23T23:24:02.287Z,24.60
2019-03-23T23:26:32.338Z,22.13
2019-03-23T23:29:02.629Z,29.23
2019-03-23T23:31:33.186Z,31.67
2019-03-23T23:34:03.014Z,18.17
2019-03-23T23:36:33.378Z,29.73
2019-03-23T23:39:04.306Z,26.33
2019-03-23T23:41:34.456Z,22.20
2019-03-23T23:44:04.650Z,26.73
2019-03-23T23:46:36.928Z,27.90
2019-03-23T23:49:06.655Z,27.53
2019-03-23T23:51:37.317Z,25.50
2019-03-23T23:54:07.368Z,28.87
2019-03-23T23:56:37.910Z,23.83
2019-03-23T23:59:08.398Z,32.57
